Mountain Mesa, California
Current Conditions -  °F | °C
As of 7:54 AM on Wednesday 22 Oct 2014 (Local Time) from KBFL Reporting Station
Overcast Overcast  
Wind Chill: 57°   Ceiling: 4300
Heat Index: 57°   Visibility: 10mi
Dew Point: 42°   Wind: 6mph
Humidity: 57%   Direction: 130°SE
Pressure: 30.06"   Gusts: NA
Location:  35.6214°N, 118.493°W
Report Text: KBFL 221454Z 13005KT 10SM OVC043 14/06 A3006 RMK AO2 SLP176 T01390056 52012
Loading
Personal Weather Stations






























Interactive Weather Map
Tropical Storm Tracking
New forecast layout! Learn more

10-Day Weather Forecast

Advertisements
Track Severe Weather on mobile